Time;durP1;ratioP1;P1;durP2;ratioP2;P2;SDS_P1;SDS_P2;PMS_P1;PMS_P2;Temp;Humidity;BMP_temperature;BMP_pressure;BME280_temperature;BME280_humidity;BME280_pressure;Samples;Min_cycle;Max_cycle;Signal;HPM_P1;HPM_P2
2023/02/23 00:01:10;;;;;;;;;;;8.70;99.90;;;;;;8382373;28;20377;-71
2023/02/23 00:05:11;;;;;;;;;;;8.70;99.90;;;;;;8380837;28;19939;-72
2023/02/23 00:09:22;;;;;;;;;;;8.70;99.90;;;;;;8371035;28;20016;-71
2023/02/23 00:13:24;;;;;;;;;;;8.70;99.90;;;;;;8389154;28;19972;-72
2023/02/23 00:17:26;;;;;;;;;;;8.70;99.90;;;;;;8379996;28;20631;-72
2023/02/23 00:21:29;;;;;;;;;;;8.70;99.90;;;;;;8378953;28;20024;-71
2023/02/23 00:25:30;;;;;;;;;;;8.70;99.90;;;;;;8388557;28;19928;-72
2023/02/23 00:29:39;;;;;;;;;;;8.70;99.90;;;;;;8380295;28;20388;-72
2023/02/23 00:33:41;;;;;;;;;;;8.60;99.90;;;;;;8371683;28;19932;-72
2023/02/23 00:37:43;;;;;;;;;;;8.60;99.90;;;;;;8380709;28;19925;-72
2023/02/23 00:41:45;;;;;;;;;;;8.60;99.90;;;;;;8363786;28;20352;-71
2023/02/23 00:50:58;;;;;;;;;;;8.60;99.90;;;;;;8386361;28;19920;-72
2023/02/23 00:54:59;;;;;;;;;;;8.50;99.90;;;;;;8386186;28;19932;-72
2023/02/23 00:59:01;;;;;;;;;;;8.50;99.90;;;;;;8385491;28;19960;-72
2023/02/23 01:03:03;;;;;;;;;;;8.50;99.90;;;;;;8368691;28;19960;-71
2023/02/23 01:07:05;;;;;;;;;;;8.50;99.90;;;;;;8387588;28;19968;-71
2023/02/23 01:11:14;;;;;;;;;;;8.40;99.90;;;;;;8384618;28;19939;-71
2023/02/23 01:15:16;;;;;;;;;;;8.40;99.90;;;;;;8383792;28;19929;-71
2023/02/23 01:19:18;;;;;;;;;;;8.40;99.90;;;;;;8368982;28;20027;-71
2023/02/23 01:23:21;;;;;;;;;;;8.40;99.90;;;;;;8369384;28;20292;-71
2023/02/23 01:27:24;;;;;;;;;;;8.40;99.90;;;;;;8383175;28;19929;-72
2023/02/23 01:31:26;;;;;;;;;;;8.40;99.90;;;;;;8387981;28;19931;-71
2023/02/23 01:35:28;;;;;;;;;;;8.40;99.90;;;;;;8387645;28;19932;-72
2023/02/23 01:39:31;;;;;;;;;;;8.40;99.90;;;;;;8378852;28;20310;-72
2023/02/23 01:43:33;;;;;;;;;;;8.50;99.90;;;;;;8369991;28;20376;-72
2023/02/23 01:47:34;;;;;;;;;;;8.50;99.90;;;;;;8381795;28;19929;-72
2023/02/23 01:51:38;;;;;;;;;;;8.50;99.90;;;;;;8381342;28;19939;-72
2023/02/23 01:55:40;;;;;;;;;;;8.50;99.90;;;;;;8385994;28;20283;-72
2023/02/23 01:59:44;;;;;;;;;;;8.50;99.90;;;;;;8380906;28;19933;-72
2023/02/23 02:03:53;;;;;;;;;;;8.50;99.90;;;;;;8376352;28;20011;-72
2023/02/23 02:07:57;;;;;;;;;;;8.50;99.90;;;;;;8368491;28;19932;-72
2023/02/23 02:12:01;;;;;;;;;;;8.50;99.90;;;;;;8383616;28;19924;-72
2023/02/23 02:16:12;;;;;;;;;;;8.50;99.90;;;;;;8387934;28;20395;-72
2023/02/23 02:20:25;;;;;;;;;;;8.50;99.90;;;;;;8377268;28;19925;-72
2023/02/23 02:24:47;;;;;;;;;;;8.50;99.90;;;;;;8382459;28;19932;-72
2023/02/23 02:28:53;;;;;;;;;;;8.50;99.90;;;;;;8389045;28;20379;-72
2023/02/23 02:33:14;;;;;;;;;;;8.50;99.90;;;;;;8354027;28;20447;-72
2023/02/23 02:37:29;;;;;;;;;;;8.50;99.90;;;;;;8382868;28;19924;-72
2023/02/23 02:41:40;;;;;;;;;;;8.50;99.90;;;;;;8383318;28;20375;-71
2023/02/23 02:45:45;;;;;;;;;;;8.50;99.90;;;;;;8389795;28;19964;-71
2023/02/23 02:49:59;;;;;;;;;;;8.40;99.90;;;;;;8395372;28;19933;-71
2023/02/23 02:54:19;;;;;;;;;;;8.50;99.90;;;;;;8394525;28;19975;-72
2023/02/23 02:58:24;;;;;;;;;;;8.50;99.90;;;;;;8388449;28;20390;-71
2023/02/23 04:21:20;;;;;;;;;;;8.40;99.90;;;;;;8388166;28;19933;-72
2023/02/23 04:25:22;;;;;;;;;;;8.40;99.90;;;;;;8371362;28;19931;-72
2023/02/23 04:29:23;;;;;;;;;;;8.40;99.90;;;;;;8368942;28;19925;-71
2023/02/23 04:33:26;;;;;;;;;;;8.40;99.90;;;;;;8391109;28;19928;-72
2023/02/23 04:42:31;;;;;;;;;;;8.40;99.90;;;;;;8369208;28;20324;-71
2023/02/23 04:46:32;;;;;;;;;;;8.40;99.90;;;;;;8359570;28;19950;-71
2023/02/23 04:50:34;;;;;;;;;;;8.30;99.90;;;;;;8381419;28;19932;-71
2023/02/23 04:54:39;;;;;;;;;;;8.30;99.90;;;;;;8375444;28;20465;-71
2023/02/23 04:58:41;;;;;;;;;;;8.30;99.90;;;;;;8389384;28;19963;-72
2023/02/23 05:02:43;;;;;;;;;;;8.30;99.90;;;;;;8380793;28;19931;-71
2023/02/23 05:06:45;;;;;;;;;;;8.30;99.90;;;;;;8377614;28;20007;-71
2023/02/23 05:10:46;;;;;;;;;;;8.40;99.90;;;;;;8381356;28;20383;-71
2023/02/23 05:14:48;;;;;;;;;;;8.30;99.90;;;;;;8383943;28;20364;-71
2023/02/23 05:18:50;;;;;;;;;;;8.40;99.90;;;;;;8382245;28;19929;-71
2023/02/23 05:22:52;;;;;;;;;;;8.30;99.90;;;;;;8384170;28;19986;-72
2023/02/23 05:27:01;;;;;;;;;;;8.40;99.90;;;;;;8407991;28;20384;-71
2023/02/23 05:31:03;;;;;;;;;;;8.40;99.90;;;;;;8376763;28;20304;-72
2023/02/23 05:35:06;;;;;;;;;;;8.40;99.90;;;;;;8381942;28;19986;-71
2023/02/23 05:39:08;;;;;;;;;;;8.30;99.90;;;;;;8366008;28;19933;-71
2023/02/23 05:43:09;;;;;;;;;;;8.30;99.90;;;;;;8372089;28;20031;-71
2023/02/23 05:47:11;;;;;;;;;;;8.30;99.90;;;;;;8370385;28;19931;-71
2023/02/23 05:51:14;;;;;;;;;;;8.30;99.90;;;;;;8377766;28;19960;-71
2023/02/23 05:55:15;;;;;;;;;;;8.30;99.90;;;;;;8365712;28;20023;-71
2023/02/23 05:59:17;;;;;;;;;;;8.30;99.90;;;;;;8373224;28;20376;-71
2023/02/23 06:03:19;;;;;;;;;;;8.30;99.90;;;;;;8370610;28;19997;-72
2023/02/23 06:07:21;;;;;;;;;;;8.30;99.90;;;;;;8371551;28;19955;-71
2023/02/23 06:11:22;;;;;;;;;;;8.30;99.90;;;;;;8380121;28;19931;-73
2023/02/23 06:15:24;;;;;;;;;;;8.30;99.90;;;;;;8377272;28;20319;-73
2023/02/23 06:19:25;;;;;;;;;;;8.20;99.90;;;;;;8379924;28;19924;-73
2023/02/23 06:23:28;;;;;;;;;;;8.20;99.90;;;;;;8382934;28;19932;-73
2023/02/23 06:27:29;;;;;;;;;;;8.20;99.90;;;;;;8391215;28;20423;-73
2023/02/23 06:31:31;;;;;;;;;;;8.20;99.90;;;;;;8414107;28;19964;-73
2023/02/23 06:35:33;;;;;;;;;;;8.20;99.90;;;;;;8400603;28;19928;-73
2023/02/23 06:39:34;;;;;;;;;;;8.20;99.90;;;;;;8381361;28;19932;-73
2023/02/23 06:43:36;;;;;;;;;;;8.20;99.90;;;;;;8367409;28;19924;-73
2023/02/23 06:47:38;;;;;;;;;;;8.20;99.90;;;;;;8384289;28;19925;-73
2023/02/23 06:51:40;;;;;;;;;;;8.20;99.90;;;;;;8395747;28;20308;-73
2023/02/23 06:55:42;;;;;;;;;;;8.20;99.90;;;;;;8394331;28;19975;-73
2023/02/23 06:59:43;;;;;;;;;;;8.20;99.90;;;;;;8384475;28;19987;-73
2023/02/23 07:03:45;;;;;;;;;;;8.20;99.90;;;;;;8381920;28;19935;-73
2023/02/23 07:07:47;;;;;;;;;;;8.20;99.90;;;;;;8376604;28;19939;-73
2023/02/23 07:11:48;;;;;;;;;;;8.20;99.90;;;;;;8398492;28;20363;-73
2023/02/23 07:15:56;;;;;;;;;;;8.20;99.90;;;;;;8385899;28;20011;-73
2023/02/23 07:19:57;;;;;;;;;;;8.20;99.90;;;;;;8385675;28;19932;-73
2023/02/23 07:24:00;;;;;;;;;;;8.30;99.90;;;;;;8370325;28;20291;-73
2023/02/23 07:28:01;;;;;;;;;;;8.30;99.90;;;;;;8386410;28;19935;-73
2023/02/23 07:32:03;;;;;;;;;;;8.30;99.90;;;;;;8384409;28;20004;-73
2023/02/23 07:36:05;;;;;;;;;;;8.30;99.90;;;;;;8400332;28;20364;-73
2023/02/23 07:40:07;;;;;;;;;;;8.30;99.90;;;;;;8382726;28;19970;-73
2023/02/23 07:44:09;;;;;;;;;;;8.30;99.90;;;;;;8390571;28;19939;-73
2023/02/23 07:48:11;;;;;;;;;;;8.40;99.90;;;;;;8392041;28;19977;-73
2023/02/23 07:52:15;;;;;;;;;;;8.40;99.90;;;;;;8378978;28;19924;-73
2023/02/23 07:56:17;;;;;;;;;;;8.50;99.90;;;;;;8387484;28;19928;-73
2023/02/23 08:00:19;;;;;;;;;;;8.50;99.90;;;;;;8381131;28;19925;-73
2023/02/23 08:04:20;;;;;;;;;;;8.50;99.90;;;;;;8387001;28;20384;-73
2023/02/23 08:08:22;;;;;;;;;;;8.50;99.90;;;;;;8396608;28;20318;-73
2023/02/23 08:12:24;;;;;;;;;;;8.60;99.90;;;;;;8380350;28;19955;-73
2023/02/23 08:16:26;;;;;;;;;;;8.60;99.90;;;;;;8374672;28;19964;-73
2023/02/23 08:20:28;;;;;;;;;;;8.60;99.90;;;;;;8366007;28;19924;-73
2023/02/23 08:24:29;;;;;;;;;;;8.60;99.90;;;;;;8393639;28;19932;-73
2023/02/23 08:28:31;;;;;;;;;;;8.60;99.90;;;;;;8378217;28;19925;-73
2023/02/23 08:32:36;;;;;;;;;;;8.60;99.90;;;;;;8365694;28;20299;-73
2023/02/23 08:36:39;;;;;;;;;;;8.70;99.90;;;;;;8370546;28;20335;-73
2023/02/23 08:40:41;;;;;;;;;;;8.70;99.90;;;;;;8376145;28;19925;-73
2023/02/23 08:44:43;;;;;;;;;;;8.80;99.90;;;;;;8390112;28;20384;-73
2023/02/23 08:48:45;;;;;;;;;;;8.80;99.90;;;;;;8384279;28;19924;-73
2023/02/23 08:52:47;;;;;;;;;;;8.80;99.90;;;;;;8386934;28;19936;-73
2023/02/23 08:56:48;;;;;;;;;;;8.80;99.90;;;;;;8373923;28;19924;-73
2023/02/23 09:00:50;;;;;;;;;;;8.80;99.90;;;;;;8365079;28;20302;-73
2023/02/23 09:04:52;;;;;;;;;;;8.80;99.90;;;;;;8359850;28;19931;-73
2023/02/23 09:08:54;;;;;;;;;;;8.80;99.90;;;;;;8385832;28;19936;-73
2023/02/23 09:12:58;;;;;;;;;;;8.90;99.90;;;;;;8389604;28;19925;-73
2023/02/23 09:17:00;;;;;;;;;;;8.90;99.90;;;;;;8384441;28;20035;-73
2023/02/23 09:21:05;;;;;;;;;;;8.90;99.90;;;;;;8364441;28;19969;-73
2023/02/23 09:25:09;;;;;;;;;;;9.00;99.90;;;;;;8388237;28;19928;-73
2023/02/23 09:29:10;;;;;;;;;;;9.00;99.90;;;;;;8387365;28;19951;-73
2023/02/23 09:33:12;;;;;;;;;;;9.00;99.90;;;;;;8391012;28;20406;-73
2023/02/23 09:37:14;;;;;;;;;;;9.10;99.90;;;;;;8389009;28;19928;-73
2023/02/23 09:41:24;;;;;;;;;;;9.10;99.90;;;;;;8388380;28;19928;-73
2023/02/23 09:45:32;;;;;;;;;;;9.20;99.90;;;;;;8385665;28;19925;-73
2023/02/23 09:49:37;;;;;;;;;;;9.20;99.90;;;;;;8393621;28;20355;-73
2023/02/23 09:53:44;;;;;;;;;;;9.30;99.90;;;;;;8390489;28;19931;-73
2023/02/23 09:57:47;;;;;;;;;;;9.40;99.90;;;;;;8358756;28;19928;-73
2023/02/23 10:01:48;;;;;;;;;;;9.40;99.90;;;;;;8389067;28;19963;-73
2023/02/23 10:05:57;;;;;;;;;;;9.40;99.90;;;;;;8387070;28;20291;-73
2023/02/23 10:10:09;;;;;;;;;;;9.40;99.90;;;;;;8384566;28;19924;-73
2023/02/23 10:14:34;;;;;;;;;;;9.40;99.90;;;;;;8373970;28;19924;-73
2023/02/23 10:18:38;;;;;;;;;;;9.50;99.90;;;;;;8382911;28;19932;-73
2023/02/23 10:22:48;;;;;;;;;;;9.50;99.90;;;;;;8389483;28;19932;-73
2023/02/23 10:26:53;;;;;;;;;;;9.50;99.90;;;;;;8378400;28;20288;-73
2023/02/23 10:30:54;;;;;;;;;;;9.50;99.90;;;;;;8388044;28;19948;-73
2023/02/23 10:45:13;;;;;;;;;;;9.70;99.90;;;;;;8393280;28;19978;-73
2023/02/23 10:49:18;;;;;;;;;;;9.70;99.90;;;;;;8392221;28;19925;-73
2023/02/23 10:53:19;;;;;;;;;;;9.80;99.90;;;;;;8393206;28;20299;-73
2023/02/23 10:57:26;;;;;;;;;;;9.80;99.90;;;;;;8392282;28;20284;-73
2023/02/23 11:01:37;;;;;;;;;;;9.90;99.90;;;;;;8387307;28;19928;-73
2023/02/23 11:05:50;;;;;;;;;;;9.90;99.90;;;;;;8382527;28;19924;-74
2023/02/23 11:09:51;;;;;;;;;;;9.90;99.90;;;;;;8378958;28;19932;-73
2023/02/23 11:13:54;;;;;;;;;;;9.90;99.90;;;;;;8359402;28;19933;-73
2023/02/23 11:17:59;;;;;;;;;;;10.00;99.90;;;;;;8386674;28;20273;-73
2023/02/23 11:22:02;;;;;;;;;;;9.90;99.90;;;;;;8377049;28;19924;-73
2023/02/23 11:26:14;;;;;;;;;;;9.90;99.90;;;;;;8391707;28;19925;-73
2023/02/23 11:30:19;;;;;;;;;;;10.00;99.90;;;;;;8392805;28;19929;-73
2023/02/23 11:34:31;;;;;;;;;;;10.00;99.90;;;;;;8393190;28;19929;-72
2023/02/23 11:38:33;;;;;;;;;;;10.00;99.90;;;;;;8395414;28;19972;-72
2023/02/23 11:42:34;;;;;;;;;;;10.10;99.90;;;;;;8361568;28;20364;-73
2023/02/23 11:46:37;;;;;;;;;;;10.20;99.90;;;;;;8343431;28;19960;-72
2023/02/23 11:50:44;;;;;;;;;;;10.20;99.90;;;;;;8365876;28;19932;-73
2023/02/23 11:55:05;;;;;;;;;;;10.20;99.90;;;;;;8342567;28;20007;-73
2023/02/23 11:59:14;;;;;;;;;;;10.10;99.90;;;;;;8359116;28;19925;-73
2023/02/23 12:03:20;;;;;;;;;;;10.00;99.90;;;;;;8346313;28;19931;-73
2023/02/23 12:07:21;;;;;;;;;;;10.00;99.90;;;;;;8363124;28;19932;-73
2023/02/23 12:11:25;;;;;;;;;;;9.90;99.90;;;;;;8360651;28;19987;-72
2023/02/23 12:15:45;;;;;;;;;;;9.70;99.90;;;;;;8360532;28;19939;-73
2023/02/23 12:19:50;;;;;;;;;;;9.60;99.90;;;;;;8345091;28;19933;-73
2023/02/23 12:23:57;;;;;;;;;;;9.60;99.90;;;;;;8344839;28;19960;-73
2023/02/23 12:27:59;;;;;;;;;;;9.60;99.90;;;;;;8362824;28;19929;-73
2023/02/23 12:32:17;;;;;;;;;;;9.50;99.90;;;;;;8359485;28;20362;-73
2023/02/23 12:36:28;;;;;;;;;;;9.60;99.90;;;;;;8344780;28;19931;-72
2023/02/23 12:40:33;;;;;;;;;;;9.60;99.90;;;;;;8367063;28;20031;-72
2023/02/23 12:44:41;;;;;;;;;;;9.60;99.90;;;;;;8358726;28;20015;-73
2023/02/23 12:48:47;;;;;;;;;;;9.60;99.90;;;;;;8374493;28;19933;-72
2023/02/23 12:52:52;;;;;;;;;;;9.60;99.90;;;;;;8344472;28;20331;-73
2023/02/23 12:57:18;;;;;;;;;;;9.70;99.90;;;;;;8352844;28;20265;-73
2023/02/23 13:01:28;;;;;;;;;;;9.80;99.90;;;;;;8357974;28;20019;-73
2023/02/23 13:05:33;;;;;;;;;;;9.80;99.90;;;;;;8369986;28;19940;-73
2023/02/23 13:09:34;;;;;;;;;;;9.90;99.90;;;;;;8363441;28;19968;-73
2023/02/23 13:13:47;;;;;;;;;;;9.90;99.90;;;;;;8356904;28;19925;-73
2023/02/23 13:18:02;;;;;;;;;;;9.90;99.90;;;;;;8342617;28;19937;-73
2023/02/23 13:22:25;;;;;;;;;;;10.00;99.90;;;;;;8358175;28;21000;-73
2023/02/23 13:26:33;;;;;;;;;;;10.00;99.90;;;;;;8359260;28;20048;-73
2023/02/23 13:30:41;;;;;;;;;;;10.20;99.90;;;;;;8364238;28;20327;-73
2023/02/23 13:34:51;;;;;;;;;;;10.60;99.90;;;;;;8368472;28;19987;-73
2023/02/23 13:39:15;;;;;;;;;;;11.10;99.90;;;;;;8368776;28;19928;-73
2023/02/23 13:43:31;;;;;;;;;;;11.30;99.90;;;;;;8340206;28;19924;-73
2023/02/23 13:47:38;;;;;;;;;;;11.40;99.90;;;;;;8363552;28;20280;-73
2023/02/23 13:51:44;;;;;;;;;;;11.20;99.90;;;;;;8348173;28;19935;-73
2023/02/23 13:55:50;;;;;;;;;;;10.90;99.90;;;;;;8366520;28;19928;-73
2023/02/23 13:59:52;;;;;;;;;;;10.70;99.90;;;;;;8365945;28;19932;-73
2023/02/23 14:03:55;;;;;;;;;;;10.60;99.90;;;;;;8375254;28;20372;-73
2023/02/23 14:08:01;;;;;;;;;;;10.50;99.90;;;;;;8358370;28;19946;-73
2023/02/23 14:12:04;;;;;;;;;;;10.50;99.90;;;;;;8362057;28;19924;-73
2023/02/23 14:16:26;;;;;;;;;;;10.40;99.90;;;;;;8360315;28;19935;-73
2023/02/23 14:20:37;;;;;;;;;;;10.40;99.90;;;;;;8361650;28;19929;-73
2023/02/23 14:24:38;;;;;;;;;;;10.30;99.90;;;;;;8351286;28;20336;-73
2023/02/23 14:29:00;;;;;;;;;;;10.20;99.90;;;;;;8368859;28;19979;-73
2023/02/23 14:33:06;;;;;;;;;;;10.20;99.90;;;;;;8354116;28;19972;-73
2023/02/23 14:37:24;;;;;;;;;;;10.10;99.90;;;;;;8364870;28;20038;-73
2023/02/23 14:41:27;;;;;;;;;;;10.10;99.90;;;;;;8360639;28;19936;-73
2023/02/23 14:45:30;;;;;;;;;;;10.10;99.90;;;;;;8364674;28;20019;-73
2023/02/23 14:49:35;;;;;;;;;;;10.00;99.90;;;;;;8372596;28;20384;-73
2023/02/23 14:53:38;;;;;;;;;;;10.00;99.90;;;;;;8361552;28;19948;-73
2023/02/23 14:57:41;;;;;;;;;;;10.10;99.90;;;;;;8369992;28;19928;-73
2023/02/23 15:01:43;;;;;;;;;;;10.10;99.90;;;;;;8357571;28;20226;-73
2023/02/23 15:05:45;;;;;;;;;;;10.10;99.90;;;;;;8357531;28;19933;-73
2023/02/23 15:09:46;;;;;;;;;;;10.10;99.90;;;;;;8378365;28;20414;-73
2023/02/23 15:13:50;;;;;;;;;;;10.20;99.90;;;;;;8364179;28;20399;-73
2023/02/23 15:17:53;;;;;;;;;;;10.20;99.90;;;;;;8381926;28;20342;-73
2023/02/23 15:21:56;;;;;;;;;;;10.20;99.90;;;;;;8382474;28;19925;-72
2023/02/23 15:25:57;;;;;;;;;;;10.10;99.90;;;;;;8369593;28;19924;-72
2023/02/23 15:30:01;;;;;;;;;;;10.10;99.90;;;;;;8360212;28;19932;-73
2023/02/23 15:34:03;;;;;;;;;;;10.00;99.90;;;;;;8360422;28;20355;-72
2023/02/23 15:38:06;;;;;;;;;;;10.10;99.90;;;;;;8363021;28;19947;-72
2023/02/23 15:42:27;;;;;;;;;;;10.00;99.90;;;;;;8363572;28;19932;-72
2023/02/23 15:46:31;;;;;;;;;;;10.00;99.90;;;;;;8348546;28;19929;-73
2023/02/23 15:50:34;;;;;;;;;;;9.90;99.90;;;;;;8377041;28;19948;-72
2023/02/23 15:54:46;;;;;;;;;;;9.90;99.90;;;;;;8362124;28;19928;-73
2023/02/23 15:58:50;;;;;;;;;;;9.80;99.90;;;;;;8376722;28;19968;-73
2023/02/23 16:03:02;;;;;;;;;;;9.70;99.90;;;;;;8357715;28;20392;-72
2023/02/23 16:07:06;;;;;;;;;;;9.60;99.90;;;;;;8343558;28;19929;-72
2023/02/23 16:11:12;;;;;;;;;;;9.50;99.90;;;;;;8362817;28;20487;-72
2023/02/23 16:15:25;;;;;;;;;;;9.30;99.90;;;;;;8361816;28;20035;-72
2023/02/23 16:19:27;;;;;;;;;;;9.10;99.90;;;;;;8359399;28;19933;-73
2023/02/23 16:23:31;;;;;;;;;;;9.00;99.90;;;;;;8345016;28;20108;-72
2023/02/23 16:27:36;;;;;;;;;;;8.90;99.90;;;;;;8374422;28;20023;-73
2023/02/23 16:31:43;;;;;;;;;;;8.80;99.90;;;;;;8361829;28;19925;-72
2023/02/23 16:35:47;;;;;;;;;;;8.80;99.90;;;;;;8346290;28;20064;-73
2023/02/23 16:44:52;;;;;;;;;;;8.70;99.90;;;;;;8358227;28;20530;-73
2023/02/23 16:48:54;;;;;;;;;;;8.60;99.90;;;;;;8358713;28;19936;-73
2023/02/23 16:52:55;;;;;;;;;;;8.60;99.90;;;;;;8360077;28;19968;-72
2023/02/23 16:56:57;;;;;;;;;;;8.50;99.90;;;;;;8364631;28;20011;-72
2023/02/23 17:00:59;;;;;;;;;;;8.50;99.90;;;;;;8362777;28;20087;-73
2023/02/23 17:05:00;;;;;;;;;;;8.50;99.90;;;;;;8358010;28;20534;-73
2023/02/23 17:09:02;;;;;;;;;;;8.50;99.90;;;;;;8375404;28;20348;-73
2023/02/23 17:13:05;;;;;;;;;;;8.50;99.90;;;;;;8370511;28;20105;-73
2023/02/23 17:17:11;;;;;;;;;;;8.40;99.90;;;;;;8361330;28;19948;-72
2023/02/23 17:21:13;;;;;;;;;;;8.40;99.90;;;;;;8342640;28;20007;-73
2023/02/23 17:25:15;;;;;;;;;;;8.40;99.90;;;;;;8336640;28;19929;-72
2023/02/23 17:29:17;;;;;;;;;;;8.30;99.90;;;;;;8336453;28;20302;-73
2023/02/23 17:33:19;;;;;;;;;;;8.30;99.90;;;;;;8354110;28;20493;-73
2023/02/23 17:37:21;;;;;;;;;;;8.30;99.90;;;;;;8355588;28;19936;-73
2023/02/23 17:41:24;;;;;;;;;;;8.20;99.90;;;;;;8345431;28;19932;-73
2023/02/23 17:45:26;;;;;;;;;;;8.20;99.90;;;;;;8351789;28;19935;-72
2023/02/23 17:49:28;;;;;;;;;;;8.20;99.90;;;;;;8359410;28;19929;-73
2023/02/23 17:53:31;;;;;;;;;;;8.10;99.90;;;;;;8368188;28;19975;-73
2023/02/23 17:57:32;;;;;;;;;;;8.00;99.90;;;;;;8356283;28;20388;-73
2023/02/23 18:01:34;;;;;;;;;;;7.90;99.90;;;;;;8353377;28;19979;-73
2023/02/23 18:05:35;;;;;;;;;;;7.90;99.90;;;;;;8356219;28;20277;-73
2023/02/23 18:09:38;;;;;;;;;;;7.80;99.90;;;;;;8348786;28;20388;-73
2023/02/23 18:13:39;;;;;;;;;;;7.80;99.90;;;;;;8347763;28;20407;-72
2023/02/23 18:17:41;;;;;;;;;;;7.70;99.90;;;;;;8350582;28;19964;-73
2023/02/23 18:21:44;;;;;;;;;;;7.70;99.90;;;;;;8352889;28;20027;-72
2023/02/23 18:25:46;;;;;;;;;;;7.70;99.90;;;;;;8349058;28;20230;-73
2023/02/23 18:29:48;;;;;;;;;;;7.70;99.90;;;;;;8347950;28;19968;-73
2023/02/23 18:33:51;;;;;;;;;;;7.60;99.90;;;;;;8355466;28;20299;-73
2023/02/23 18:37:53;;;;;;;;;;;7.60;99.90;;;;;;8361687;28;20047;-73
2023/02/23 18:41:55;;;;;;;;;;;7.60;99.90;;;;;;8349314;28;19932;-73
2023/02/23 18:45:58;;;;;;;;;;;7.50;99.90;;;;;;8358127;28;19931;-72
2023/02/23 18:50:00;;;;;;;;;;;7.50;99.90;;;;;;8356943;28;19924;-73
2023/02/23 18:54:03;;;;;;;;;;;7.40;99.90;;;;;;8343800;28;19924;-72
2023/02/23 18:58:05;;;;;;;;;;;7.40;99.90;;;;;;8340335;28;19971;-73
2023/02/23 19:02:08;;;;;;;;;;;7.30;99.90;;;;;;8343539;28;20351;-73
2023/02/23 19:06:10;;;;;;;;;;;7.30;99.90;;;;;;8361049;28;20484;-73
2023/02/23 19:10:13;;;;;;;;;;;7.20;99.90;;;;;;8360490;28;19935;-73
2023/02/23 19:14:17;;;;;;;;;;;7.20;99.90;;;;;;8354983;28;20387;-73
2023/02/23 19:18:19;;;;;;;;;;;7.10;99.90;;;;;;8350954;28;19928;-73
2023/02/23 19:22:21;;;;;;;;;;;7.10;99.90;;;;;;8359933;28;20007;-73
2023/02/23 19:26:23;;;;;;;;;;;7.00;99.90;;;;;;8352512;28;20658;-72
2023/02/23 19:30:25;;;;;;;;;;;7.00;99.90;;;;;;8359176;28;19925;-73
2023/02/23 19:34:27;;;;;;;;;;;6.90;99.90;;;;;;8352939;28;19931;-73
2023/02/23 19:38:28;;;;;;;;;;;6.80;99.90;;;;;;8341608;28;19929;-73
2023/02/23 19:42:31;;;;;;;;;;;6.70;99.90;;;;;;8365077;28;20579;-72
2023/02/23 19:46:33;;;;;;;;;;;6.60;99.90;;;;;;8357118;28;19928;-72
2023/02/23 19:50:35;;;;;;;;;;;6.60;99.90;;;;;;8354976;28;19974;-73
2023/02/23 19:54:37;;;;;;;;;;;6.50;99.90;;;;;;8371361;28;20042;-74
2023/02/23 19:58:43;;;;;;;;;;;6.40;99.90;;;;;;8359177;28;19936;-73
2023/02/23 20:02:49;;;;;;;;;;;6.40;99.90;;;;;;8369374;28;19979;-72
2023/02/23 20:06:51;;;;;;;;;;;6.30;99.90;;;;;;8363909;28;19976;-72
2023/02/23 20:10:52;;;;;;;;;;;6.30;99.90;;;;;;8360872;28;19939;-72
2023/02/23 20:14:56;;;;;;;;;;;6.20;99.90;;;;;;8380016;28;19936;-72
2023/02/23 20:18:58;;;;;;;;;;;6.10;99.90;;;;;;8359688;28;19986;-73
2023/02/23 20:23:00;;;;;;;;;;;6.00;99.90;;;;;;8361288;28;20359;-73
2023/02/23 20:27:01;;;;;;;;;;;6.00;99.90;;;;;;8383574;28;19924;-73
2023/02/23 20:31:03;;;;;;;;;;;5.90;99.90;;;;;;8361518;28;19955;-73
2023/02/23 20:35:05;;;;;;;;;;;5.90;99.90;;;;;;8377549;28;19929;-73
2023/02/23 20:39:09;;;;;;;;;;;5.80;99.90;;;;;;8363153;28;19978;-73
2023/02/23 20:43:11;;;;;;;;;;;5.70;99.90;;;;;;8342252;28;20351;-72
2023/02/23 20:47:12;;;;;;;;;;;5.60;99.90;;;;;;8361679;28;20287;-72
2023/02/23 20:51:17;;;;;;;;;;;5.50;99.90;;;;;;8362058;28;20027;-72
2023/02/23 20:55:19;;;;;;;;;;;5.30;99.90;;;;;;8362518;28;20413;-73
2023/02/23 20:59:21;;;;;;;;;;;5.20;99.90;;;;;;8342894;28;20023;-72
2023/02/23 21:03:23;;;;;;;;;;;5.10;99.90;;;;;;8361677;28;19924;-72
2023/02/23 21:07:26;;;;;;;;;;;5.10;99.90;;;;;;8359508;28;19928;-72
2023/02/23 21:11:28;;;;;;;;;;;5.00;99.90;;;;;;8346288;28;20020;-72
2023/02/23 21:15:30;;;;;;;;;;;4.90;99.90;;;;;;8359478;28;20357;-73
2023/02/23 21:19:32;;;;;;;;;;;4.90;99.90;;;;;;8362781;28;19991;-72
2023/02/23 21:23:34;;;;;;;;;;;4.90;99.90;;;;;;8343627;28;20076;-72
2023/02/23 21:27:36;;;;;;;;;;;4.90;99.90;;;;;;8374703;28;20377;-72
2023/02/23 21:31:37;;;;;;;;;;;4.90;99.90;;;;;;8357394;28;19924;-73
2023/02/23 21:35:39;;;;;;;;;;;4.80;99.90;;;;;;8360302;28;19931;-72
2023/02/23 21:39:41;;;;;;;;;;;4.70;99.90;;;;;;8346292;28;20028;-73
2023/02/23 21:43:43;;;;;;;;;;;4.60;99.90;;;;;;8365308;28;20408;-72
2023/02/23 21:47:45;;;;;;;;;;;4.60;99.90;;;;;;8363123;28;20417;-73
2023/02/23 21:51:47;;;;;;;;;;;4.50;99.90;;;;;;8357856;28;20377;-72
2023/02/23 21:55:49;;;;;;;;;;;4.50;99.90;;;;;;8365280;28;19925;-72
2023/02/23 21:59:51;;;;;;;;;;;4.40;99.90;;;;;;8358738;28;20030;-73
2023/02/23 22:03:53;;;;;;;;;;;4.40;99.90;;;;;;8376302;28;19972;-72
2023/02/23 22:07:55;;;;;;;;;;;4.40;99.90;;;;;;8368458;28;19924;-72
2023/02/23 22:11:57;;;;;;;;;;;4.40;99.90;;;;;;8368302;28;21665;-73
2023/02/23 22:15:58;;;;;;;;;;;4.30;99.90;;;;;;8382615;28;19932;-72
2023/02/23 22:20:00;;;;;;;;;;;4.30;99.90;;;;;;8390304;28;19928;-73
2023/02/23 22:24:04;;;;;;;;;;;4.30;99.90;;;;;;8371061;28;19932;-72
2023/02/23 22:28:07;;;;;;;;;;;4.30;99.90;;;;;;8393736;28;19924;-72
2023/02/23 22:32:09;;;;;;;;;;;4.30;99.90;;;;;;8379154;28;19940;-73
2023/02/23 22:36:12;;;;;;;;;;;4.30;99.90;;;;;;8386929;28;19929;-72
2023/02/23 22:40:15;;;;;;;;;;;4.30;99.90;;;;;;8384760;28;19924;-72
2023/02/23 22:44:19;;;;;;;;;;;4.20;99.90;;;;;;8388430;28;19972;-73
2023/02/23 22:48:22;;;;;;;;;;;4.20;99.90;;;;;;8372333;28;19928;-72
2023/02/23 22:52:25;;;;;;;;;;;4.20;99.90;;;;;;8383923;28;20023;-72
2023/02/23 22:56:27;;;;;;;;;;;4.20;99.90;;;;;;8385822;28;19968;-72
2023/02/23 23:00:28;;;;;;;;;;;4.10;99.90;;;;;;8385644;28;20395;-73
2023/02/23 23:04:33;;;;;;;;;;;4.00;99.90;;;;;;8390454;28;19951;-72
2023/02/23 23:08:37;;;;;;;;;;;3.80;99.90;;;;;;8388522;28;19932;-73
2023/02/23 23:12:39;;;;;;;;;;;3.70;99.90;;;;;;8391149;28;20627;-72
2023/02/23 23:16:46;;;;;;;;;;;3.60;99.90;;;;;;8389514;28;19931;-72
2023/02/23 23:20:49;;;;;;;;;;;3.40;99.90;;;;;;8380229;28;19968;-72
2023/02/23 23:24:51;;;;;;;;;;;3.30;99.90;;;;;;8386961;28;19925;-72
2023/02/23 23:28:54;;;;;;;;;;;3.20;99.90;;;;;;8389596;28;19941;-72
2023/02/23 23:32:56;;;;;;;;;;;3.20;99.90;;;;;;8384144;28;20326;-72
2023/02/23 23:37:01;;;;;;;;;;;3.10;99.90;;;;;;8373605;28;19964;-72
2023/02/23 23:41:09;;;;;;;;;;;3.00;99.90;;;;;;8369462;28;19928;-72
2023/02/23 23:45:17;;;;;;;;;;;3.00;99.90;;;;;;8390782;28;20031;-73
2023/02/23 23:49:20;;;;;;;;;;;2.90;99.90;;;;;;8387295;28;19933;-72
2023/02/23 23:53:22;;;;;;;;;;;2.80;99.90;;;;;;8366791;28;19968;-72
2023/02/23 23:57:24;;;;;;;;;;;2.70;99.90;;;;;;8385876;28;19938;-73
